createdAt,value
2018-07-20T00:00:19.130Z,5.27
2018-07-20T00:02:48.189Z,6.57
2018-07-20T00:05:17.314Z,5.80
2018-07-20T00:07:46.489Z,5.77
2018-07-20T00:10:15.596Z,5.97
2018-07-20T00:12:44.691Z,5.73
2018-07-20T00:15:13.935Z,5.33
2018-07-20T00:17:43.027Z,6.00
2018-07-20T00:20:12.179Z,5.93
2018-07-20T00:22:41.218Z,5.40
2018-07-20T00:25:10.316Z,5.80
2018-07-20T00:27:39.329Z,5.40
2018-07-20T00:30:08.439Z,6.63
2018-07-20T00:32:37.682Z,5.40
2018-07-20T00:35:06.557Z,5.60
2018-07-20T00:37:35.646Z,6.17
2018-07-20T00:40:04.773Z,6.33
2018-07-20T00:42:34.057Z,6.57
2018-07-20T00:45:02.893Z,6.43
2018-07-20T00:47:31.817Z,5.63
2018-07-20T00:50:00.949Z,6.27
2018-07-20T00:52:30.050Z,6.40
2018-07-20T00:54:59.139Z,5.70
2018-07-20T00:57:28.237Z,5.97
2018-07-20T00:59:57.477Z,5.97
2018-07-20T01:02:26.600Z,5.07
2018-07-20T01:04:55.724Z,5.63
2018-07-20T01:07:24.852Z,6.07
2018-07-20T01:09:54.096Z,5.80
2018-07-20T01:12:23.000Z,6.20
2018-07-20T01:14:51.976Z,7.50
2018-07-20T01:17:21.091Z,6.20
2018-07-20T01:19:51.344Z,5.63
2018-07-20T01:22:22.413Z,5.97
2018-07-20T01:24:52.300Z,5.27
2018-07-20T01:27:21.346Z,5.67
2018-07-20T01:29:50.208Z,5.73
2018-07-20T01:32:19.130Z,5.80
2018-07-20T01:34:47.996Z,6.40
2018-07-20T01:37:17.079Z,6.50
2018-07-20T01:39:46.331Z,7.50
2018-07-20T01:42:15.412Z,7.53
2018-07-20T01:44:44.534Z,7.37
2018-07-20T01:47:13.636Z,7.10
2018-07-20T01:49:42.707Z,7.83
2018-07-20T01:52:11.855Z,7.90
2018-07-20T01:54:40.886Z,7.23
2018-07-20T01:57:09.742Z,7.40
2018-07-20T01:59:38.741Z,7.50
2018-07-20T02:02:07.849Z,7.60
2018-07-20T02:04:36.730Z,7.17
2018-07-20T02:07:05.631Z,7.50
2018-07-20T02:09:34.445Z,7.63
2018-07-20T02:12:03.201Z,7.40
2018-07-20T02:14:32.205Z,7.50
2018-07-20T02:17:01.072Z,8.07
2018-07-20T02:19:30.000Z,7.43
2018-07-20T02:21:59.115Z,7.67
2018-07-20T02:24:28.199Z,7.47
2018-07-20T02:26:57.258Z,7.77
2018-07-20T02:29:26.132Z,7.10
2018-07-20T02:31:55.080Z,7.83
2018-07-20T02:34:24.186Z,7.63
2018-07-20T02:36:53.422Z,7.83
2018-07-20T02:39:22.452Z,8.10
2018-07-20T02:41:51.711Z,7.90
2018-07-20T02:44:20.954Z,8.37
2018-07-20T02:46:50.077Z,7.67
2018-07-20T02:49:19.157Z,6.97
2018-07-20T02:51:48.242Z,7.50
2018-07-20T02:54:17.330Z,7.70
2018-07-20T02:56:46.433Z,7.40
2018-07-20T02:59:15.536Z,6.87
2018-07-20T03:01:44.624Z,7.37
2018-07-20T03:04:13.705Z,7.50
2018-07-20T03:06:42.782Z,7.40
2018-07-20T03:09:12.912Z,7.23
2018-07-20T03:11:42.906Z,7.43
2018-07-20T03:14:12.101Z,7.60
2018-07-20T03:16:40.906Z,7.30
2018-07-20T03:19:09.904Z,7.97
2018-07-20T03:21:39.014Z,7.53
2018-07-20T03:24:08.131Z,8.40
2018-07-20T03:26:37.203Z,7.60
2018-07-20T03:29:06.296Z,7.10
2018-07-20T03:31:35.378Z,7.40
2018-07-20T03:34:04.439Z,8.40
2018-07-20T03:36:33.911Z,6.80
2018-07-20T03:39:03.061Z,7.40
2018-07-20T03:41:31.924Z,7.60
2018-07-20T03:44:00.845Z,7.20
2018-07-20T03:46:29.700Z,6.83
2018-07-20T03:48:58.662Z,7.20
2018-07-20T03:51:27.694Z,6.83
2018-07-20T03:53:56.842Z,7.13
2018-07-20T03:56:25.995Z,7.03
2018-07-20T03:58:54.995Z,7.20
2018-07-20T04:01:23.820Z,6.90
2018-07-20T04:03:52.558Z,6.63
2018-07-20T04:06:21.505Z,7.07
2018-07-20T04:08:50.669Z,6.93
2018-07-20T04:11:19.726Z,6.90
2018-07-20T04:13:48.887Z,7.03
2018-07-20T04:16:18.002Z,7.07
2018-07-20T04:18:47.184Z,7.10
2018-07-20T04:21:16.307Z,6.97
2018-07-20T04:23:45.399Z,6.40
2018-07-20T04:26:14.471Z,6.87
2018-07-20T04:28:43.670Z,6.97
2018-07-20T04:31:12.800Z,7.10
2018-07-20T04:33:41.914Z,7.23
2018-07-20T04:36:10.770Z,6.80
2018-07-20T04:38:39.684Z,6.93
2018-07-20T04:41:08.777Z,7.20
2018-07-20T04:43:37.842Z,6.57
2018-07-20T04:46:06.926Z,7.20
2018-07-20T04:48:36.048Z,6.40
2018-07-20T04:51:05.221Z,7.20
2018-07-20T04:53:34.420Z,7.10
2018-07-20T04:56:03.514Z,7.53
2018-07-20T04:58:32.600Z,7.37
2018-07-20T05:01:01.644Z,7.87
2018-07-20T05:03:30.505Z,7.87
2018-07-20T05:05:59.538Z,7.33
2018-07-20T05:08:28.491Z,7.53
2018-07-20T05:10:57.483Z,7.27
2018-07-20T05:13:26.574Z,7.50
2018-07-20T05:15:55.669Z,7.17
2018-07-20T05:20:45.063Z,8.00
2018-07-20T05:23:14.155Z,7.63
2018-07-20T05:25:43.318Z,7.20
2018-07-20T05:28:12.395Z,7.40
2018-07-20T05:30:41.458Z,7.00
2018-07-20T05:33:10.268Z,6.60
2018-07-20T05:35:39.317Z,5.67
2018-07-20T05:38:08.459Z,6.33
2018-07-20T05:40:37.565Z,6.07
2018-07-20T05:43:06.700Z,7.00
2018-07-20T05:45:35.816Z,6.17
2018-07-20T05:48:05.007Z,6.20
2018-07-20T05:50:34.115Z,6.20
2018-07-20T05:53:03.151Z,5.37
2018-07-20T05:55:32.225Z,6.20
2018-07-20T05:58:01.567Z,7.20
2018-07-20T06:00:30.658Z,6.40
2018-07-20T06:02:59.687Z,5.90
2018-07-20T06:05:28.991Z,5.87
2018-07-20T06:07:57.868Z,6.43
2018-07-20T06:10:26.945Z,6.33
2018-07-20T06:12:56.183Z,6.40
2018-07-20T06:15:25.265Z,6.20
2018-07-20T06:17:54.388Z,5.90
2018-07-20T06:20:23.424Z,6.17
2018-07-20T06:22:52.632Z,6.97
2018-07-20T06:25:21.788Z,6.23
2018-07-20T06:27:50.917Z,6.13
2018-07-20T06:30:20.040Z,5.60
2018-07-20T06:32:49.377Z,5.60
2018-07-20T06:35:18.437Z,5.27
2018-07-20T06:37:47.315Z,5.30
2018-07-20T06:40:16.298Z,5.00
2018-07-20T06:42:45.425Z,5.73
2018-07-20T06:45:14.505Z,6.23
2018-07-20T06:47:44.451Z,6.00
2018-07-20T06:50:15.472Z,6.13
2018-07-20T06:52:44.784Z,5.10
2018-07-20T06:55:13.997Z,5.77
2018-07-20T06:57:43.277Z,4.47
2018-07-20T07:00:12.430Z,4.90
2018-07-20T07:02:42.909Z,4.97
2018-07-20T07:05:12.259Z,5.10
2018-07-20T07:07:41.475Z,5.50
2018-07-20T07:10:10.590Z,4.50
2018-07-20T07:12:39.416Z,4.90
2018-07-20T07:15:08.449Z,4.70
2018-07-20T07:17:37.573Z,4.83
2018-07-20T07:20:06.627Z,4.30
2018-07-20T07:22:35.755Z,4.83
2018-07-20T07:25:05.007Z,5.33
2018-07-20T07:27:34.174Z,5.60
2018-07-20T07:30:03.442Z,4.93
2018-07-20T07:32:32.277Z,4.67
2018-07-20T07:35:01.405Z,5.17
2018-07-20T07:37:30.517Z,5.00
2018-07-20T07:39:59.868Z,4.77
2018-07-20T07:42:29.293Z,3.97
2018-07-20T07:44:58.525Z,4.67
2018-07-20T07:47:27.405Z,4.33
2018-07-20T07:49:56.460Z,4.40
2018-07-20T07:52:25.509Z,4.37
2018-07-20T07:54:54.886Z,4.23
2018-07-20T07:57:23.932Z,5.00
2018-07-20T07:59:52.982Z,4.60
2018-07-20T08:02:22.149Z,4.83
2018-07-20T08:04:51.256Z,4.03
2018-07-20T08:07:20.400Z,4.67
2018-07-20T08:09:49.681Z,4.13
2018-07-20T08:12:18.909Z,4.60
2018-07-20T08:14:48.011Z,4.43
2018-07-20T08:17:17.333Z,4.10
2018-07-20T08:19:46.486Z,3.87
2018-07-20T08:22:15.572Z,4.17
2018-07-20T08:24:44.655Z,3.83
2018-07-20T08:27:13.701Z,3.53
2018-07-20T08:29:42.683Z,3.73
2018-07-20T08:32:11.859Z,4.30
2018-07-20T08:34:40.967Z,3.60
2018-07-20T08:37:10.109Z,4.20
2018-07-20T08:39:39.395Z,3.80
2018-07-20T08:42:09.694Z,3.70
2018-07-20T08:44:38.940Z,3.63
2018-07-20T08:47:08.019Z,3.87
2018-07-20T08:49:37.091Z,4.43
2018-07-20T08:52:06.385Z,4.03
2018-07-20T08:54:35.459Z,3.87
2018-07-20T08:57:04.494Z,3.20
2018-07-20T08:59:33.652Z,3.40
2018-07-20T09:02:02.745Z,4.13
2018-07-20T09:04:31.767Z,3.30
2018-07-20T09:07:00.874Z,3.57
2018-07-20T09:09:30.020Z,3.67
2018-07-20T09:11:59.140Z,3.27
2018-07-20T09:14:28.163Z,3.23
2018-07-20T09:16:57.891Z,3.20
2018-07-20T09:19:26.828Z,3.40
2018-07-20T09:22:05.676Z,3.87
2018-07-20T09:24:34.980Z,3.50
2018-07-20T09:27:04.096Z,3.83
2018-07-20T09:29:32.913Z,3.73
2018-07-20T09:32:01.745Z,3.67
2018-07-20T09:34:30.695Z,3.97
2018-07-20T09:37:00.813Z,4.20
2018-07-20T09:39:29.965Z,3.70
2018-07-20T09:41:59.024Z,3.77
2018-07-20T09:44:28.378Z,3.90
2018-07-20T09:46:57.283Z,3.93
2018-07-20T09:49:26.978Z,4.20
2018-07-20T09:51:58.047Z,4.00
2018-07-20T09:54:27.217Z,3.70
2018-07-20T09:56:56.278Z,4.17
2018-07-20T09:59:25.382Z,3.67
2018-07-20T10:01:54.497Z,3.63
2018-07-20T10:04:23.835Z,4.50
2018-07-20T10:06:52.914Z,3.80
2018-07-20T10:09:22.276Z,3.60
2018-07-20T10:11:51.364Z,3.83
2018-07-20T10:14:20.562Z,3.40
2018-07-20T10:16:49.671Z,3.70
2018-07-20T10:19:18.782Z,3.73
2018-07-20T10:21:48.015Z,3.60
2018-07-20T10:24:16.843Z,3.53
2018-07-20T10:26:45.968Z,3.53
2018-07-20T10:29:14.879Z,3.20
2018-07-20T10:31:43.582Z,3.30
2018-07-20T10:34:12.583Z,3.30
2018-07-20T10:36:42.190Z,3.87
2018-07-20T10:39:11.731Z,3.70
2018-07-20T10:41:41.033Z,3.30
2018-07-20T10:44:10.047Z,3.67
2018-07-20T10:46:39.189Z,3.33
2018-07-20T10:49:08.751Z,3.70
2018-07-20T10:51:38.065Z,4.03
2018-07-20T10:54:07.485Z,3.53
2018-07-20T10:56:37.424Z,3.30
2018-07-20T10:59:06.425Z,3.20
2018-07-20T11:01:35.713Z,3.70
2018-07-20T11:04:04.804Z,3.50
2018-07-20T11:06:33.957Z,3.67
2018-07-20T11:09:03.135Z,3.50
2018-07-20T11:11:31.925Z,3.30
2018-07-20T11:14:00.903Z,3.20
2018-07-20T11:16:30.115Z,3.30
2018-07-20T11:18:59.135Z,3.63
2018-07-20T11:21:28.211Z,3.33
2018-07-20T11:23:58.195Z,3.50
2018-07-20T11:26:27.741Z,3.30
2018-07-20T11:28:57.981Z,3.70
2018-07-20T11:31:28.803Z,3.40
2018-07-20T11:33:59.363Z,3.90
2018-07-20T11:36:38.356Z,10.03
2018-07-20T11:39:11.021Z,3.20
2018-07-20T11:41:40.438Z,3.30
2018-07-20T11:44:12.506Z,3.73
2018-07-20T11:46:51.902Z,3.73
2018-07-20T11:49:22.816Z,4.10
2018-07-20T11:51:53.800Z,3.93
2018-07-20T11:54:23.924Z,3.97
2018-07-20T11:56:53.483Z,3.60
2018-07-20T11:59:29.046Z,3.60
2018-07-20T12:02:00.273Z,3.70
2018-07-20T12:04:30.258Z,4.20
2018-07-20T12:06:59.626Z,3.50
2018-07-20T12:09:32.167Z,3.67
2018-07-20T12:12:05.046Z,3.70
2018-07-20T12:14:34.328Z,3.60
2018-07-20T12:17:05.325Z,4.10
2018-07-20T12:19:37.143Z,3.70
2018-07-20T12:22:06.606Z,4.23
2018-07-20T12:24:35.709Z,3.80
2018-07-20T12:27:05.036Z,3.80
2018-07-20T12:29:37.223Z,3.60
2018-07-20T12:32:09.074Z,3.90
2018-07-20T12:34:46.296Z,3.80
2018-07-20T12:37:26.038Z,3.90
2018-07-20T12:39:55.375Z,3.97
2018-07-20T12:42:41.498Z,4.27
2018-07-20T12:45:11.906Z,3.83
2018-07-20T12:47:45.720Z,4.63
2018-07-20T12:50:16.223Z,4.30
2018-07-20T12:52:48.986Z,4.07
2018-07-20T12:55:17.697Z,4.17
2018-07-20T12:57:47.664Z,3.37
2018-07-20T13:00:17.801Z,4.00
2018-07-20T13:02:47.402Z,4.10
2018-07-20T13:05:17.355Z,4.10
2018-07-20T13:07:46.506Z,4.20
2018-07-20T13:10:20.669Z,4.00
2018-07-20T13:12:55.566Z,4.70
2018-07-20T13:15:25.254Z,5.03
2018-07-20T13:17:54.650Z,4.90
2018-07-20T13:20:23.902Z,4.70
2018-07-20T13:22:53.069Z,4.80
2018-07-20T13:25:22.138Z,4.20
2018-07-20T13:27:51.553Z,4.77
2018-07-20T13:30:20.731Z,4.87
2018-07-20T13:32:50.188Z,4.30
2018-07-20T13:35:20.471Z,4.47
2018-07-20T13:37:49.834Z,4.83
2018-07-20T13:40:18.884Z,4.90
2018-07-20T13:42:48.042Z,4.57
2018-07-20T13:45:17.173Z,3.97
2018-07-20T13:47:46.283Z,4.13
2018-07-20T13:50:15.888Z,4.17
2018-07-20T13:52:45.054Z,4.13
2018-07-20T13:55:14.236Z,3.80
2018-07-20T13:57:43.624Z,3.77
2018-07-20T14:00:12.761Z,3.97
2018-07-20T14:02:42.090Z,3.73
2018-07-20T14:05:11.224Z,3.60
2018-07-20T14:07:40.379Z,3.73
2018-07-20T14:10:09.614Z,3.70
2018-07-20T14:12:39.138Z,3.57
2018-07-20T14:15:09.033Z,3.73
2018-07-20T14:17:38.162Z,3.53
2018-07-20T14:20:06.999Z,3.97
2018-07-20T14:22:37.510Z,4.30
2018-07-20T14:25:06.746Z,3.77
2018-07-20T14:27:35.857Z,4.40
2018-07-20T14:30:05.555Z,4.13
2018-07-20T14:32:34.633Z,4.30
2018-07-20T14:35:03.790Z,4.50
2018-07-20T14:37:32.875Z,4.47
2018-07-20T14:40:01.992Z,4.40
2018-07-20T14:42:31.324Z,4.20
2018-07-20T14:45:00.460Z,4.30
2018-07-20T14:47:29.492Z,4.10
2018-07-20T14:49:58.491Z,4.40
2018-07-20T14:52:27.568Z,4.20
2018-07-20T14:54:56.746Z,4.20
2018-07-20T14:57:25.871Z,4.30
2018-07-20T14:59:54.905Z,4.47
2018-07-20T15:02:24.097Z,4.43
2018-07-20T15:04:53.172Z,4.20
2018-07-20T15:07:22.934Z,4.43
2018-07-20T15:09:52.042Z,4.87
2018-07-20T15:12:21.315Z,5.70
2018-07-20T15:14:50.199Z,4.30
2018-07-20T15:17:19.174Z,5.00
2018-07-20T15:19:48.328Z,4.60
2018-07-20T15:22:18.659Z,4.83
2018-07-20T15:24:47.886Z,4.67
2018-07-20T15:27:17.142Z,4.53
2018-07-20T15:29:46.291Z,4.50
2018-07-20T15:32:15.438Z,4.43
2018-07-20T15:34:44.572Z,4.60
2018-07-20T15:37:13.697Z,4.47
2018-07-20T15:39:42.939Z,4.97
2018-07-20T15:42:12.171Z,4.77
2018-07-20T15:44:41.079Z,4.37
2018-07-20T15:47:10.281Z,5.07
2018-07-20T15:49:39.389Z,4.10
2018-07-20T15:54:37.342Z,4.27
2018-07-20T15:57:06.433Z,4.47
2018-07-20T15:59:35.531Z,4.30
2018-07-20T16:02:04.919Z,4.23
2018-07-20T16:04:34.588Z,4.93
2018-07-20T16:07:03.852Z,4.40
2018-07-20T16:09:32.686Z,4.23
2018-07-20T16:12:01.684Z,5.20
2018-07-20T16:14:30.925Z,4.80
2018-07-20T16:16:59.762Z,4.37
2018-07-20T16:19:28.708Z,4.47
2018-07-20T16:21:57.634Z,4.57
2018-07-20T16:24:26.610Z,4.43
2018-07-20T16:26:55.707Z,4.30
2018-07-20T16:29:24.828Z,4.27
2018-07-20T16:31:53.924Z,4.10
2018-07-20T16:34:23.040Z,4.83
2018-07-20T16:36:52.670Z,4.33
2018-07-20T16:39:21.761Z,5.03
2018-07-20T16:41:50.847Z,5.80
2018-07-20T16:44:19.994Z,4.70
2018-07-20T16:46:49.088Z,4.73
2018-07-20T16:49:18.215Z,4.30
2018-07-20T16:51:47.292Z,4.10
2018-07-20T16:54:16.359Z,4.43
2018-07-20T16:56:46.423Z,4.23
2018-07-20T16:59:15.564Z,4.53
2018-07-20T17:01:44.677Z,4.53
2018-07-20T17:04:13.780Z,4.27
2018-07-20T17:06:42.866Z,5.00
2018-07-20T17:09:12.630Z,5.37
2018-07-20T17:11:42.079Z,5.30
2018-07-20T17:14:11.620Z,4.90
2018-07-20T17:16:40.634Z,5.40
2018-07-20T17:19:09.747Z,4.80
2018-07-20T17:21:38.946Z,9.07
2018-07-20T17:24:07.913Z,5.57
2018-07-20T17:26:36.820Z,6.83
2018-07-20T17:29:06.127Z,5.00
2018-07-20T17:31:35.389Z,5.07
2018-07-20T17:34:04.568Z,5.50
2018-07-20T17:36:33.626Z,4.87
2018-07-20T17:39:02.620Z,5.60
2018-07-20T17:41:31.706Z,5.43
2018-07-20T17:44:00.618Z,4.60
2018-07-20T17:46:29.365Z,4.37
2018-07-20T17:48:58.370Z,4.83
2018-07-20T17:51:27.421Z,4.53
2018-07-20T17:53:56.535Z,4.80
2018-07-20T17:56:25.792Z,5.23
2018-07-20T17:58:54.850Z,6.23
2018-07-20T18:01:23.998Z,7.97
2018-07-20T18:03:53.016Z,5.43
2018-07-20T18:06:22.116Z,4.90
2018-07-20T18:08:51.246Z,4.33
2018-07-20T18:11:20.637Z,4.97
2018-07-20T18:13:49.454Z,3.87
2018-07-20T18:16:22.657Z,4.40
2018-07-20T18:18:51.864Z,4.07
2018-07-20T18:21:20.911Z,5.37
2018-07-20T18:23:49.724Z,5.00
2018-07-20T18:26:18.384Z,5.23
2018-07-20T18:28:47.347Z,5.00
2018-07-20T18:31:16.518Z,4.10
2018-07-20T18:33:45.720Z,3.80
2018-07-20T18:36:14.773Z,4.43
2018-07-20T18:38:43.617Z,4.43
2018-07-20T18:41:12.672Z,3.93
2018-07-20T18:43:41.837Z,3.60
2018-07-20T18:46:10.694Z,4.07
2018-07-20T18:48:39.691Z,3.63
2018-07-20T18:51:08.881Z,3.93
2018-07-20T18:53:37.988Z,3.97
2018-07-20T18:56:06.947Z,4.40
2018-07-20T18:58:35.878Z,4.30
2018-07-20T19:01:05.025Z,3.87
2018-07-20T19:03:34.090Z,4.50
2018-07-20T19:06:12.531Z,4.13
2018-07-20T19:08:41.619Z,4.00
2018-07-20T19:11:10.746Z,3.90
2018-07-20T19:13:39.904Z,4.43
2018-07-20T19:16:09.198Z,4.07
2018-07-20T19:18:38.316Z,4.47
2018-07-20T19:21:08.815Z,3.47
2018-07-20T19:23:38.023Z,4.53
2018-07-20T19:26:07.057Z,4.23
2018-07-20T19:28:36.286Z,4.17
2018-07-20T19:31:05.424Z,4.40
2018-07-20T19:33:35.140Z,3.77
2018-07-20T19:36:04.368Z,4.10
2018-07-20T19:38:33.817Z,3.73
2018-07-20T19:41:02.658Z,3.50
2018-07-20T19:43:33.043Z,3.37
2018-07-20T19:46:02.932Z,3.30
2018-07-20T19:48:31.814Z,3.30
2018-07-20T19:51:00.754Z,3.23
2018-07-20T19:53:30.016Z,3.43
2018-07-20T19:55:58.928Z,3.30
2018-07-20T19:58:27.832Z,3.17
2018-07-20T20:00:56.894Z,3.03
2018-07-20T20:03:28.290Z,3.23
2018-07-20T20:05:57.370Z,3.30
2018-07-20T20:08:26.471Z,3.60
2018-07-20T20:10:55.617Z,3.20
2018-07-20T20:13:24.419Z,3.30
2018-07-20T20:15:53.511Z,4.17
2018-07-20T20:18:22.495Z,3.80
2018-07-20T20:20:51.865Z,3.87
2018-07-20T20:23:21.153Z,4.20
2018-07-20T20:25:50.256Z,4.30
2018-07-20T20:28:19.339Z,3.90
2018-07-20T20:30:48.575Z,3.40
2018-07-20T20:33:17.437Z,3.40
2018-07-20T20:35:46.407Z,3.27
2018-07-20T20:38:15.600Z,4.07
2018-07-20T20:40:44.729Z,4.20
2018-07-20T20:43:13.830Z,3.10
2018-07-20T20:45:42.906Z,3.10
2018-07-20T20:48:12.055Z,3.37
2018-07-20T20:50:41.114Z,3.13
2018-07-20T20:53:10.631Z,2.80
2018-07-20T20:55:40.108Z,3.50
2018-07-20T20:58:09.969Z,3.10
2018-07-20T21:00:39.399Z,2.97
2018-07-20T21:03:08.429Z,2.93
2018-07-20T21:05:37.496Z,2.90
2018-07-20T21:08:06.783Z,3.10
2018-07-20T21:10:36.328Z,3.00
2018-07-20T21:13:05.567Z,3.30
2018-07-20T21:15:34.669Z,3.30
2018-07-20T21:18:03.735Z,3.13
2018-07-20T21:20:32.918Z,3.30
2018-07-20T21:23:02.197Z,2.90
2018-07-20T21:25:31.446Z,3.33
2018-07-20T21:28:00.547Z,3.07
2018-07-20T21:30:29.695Z,2.90
2018-07-20T21:32:59.003Z,3.67
2018-07-20T21:35:27.972Z,4.20
2018-07-20T21:37:57.113Z,3.37
2018-07-20T21:40:26.165Z,3.70
2018-07-20T21:42:57.099Z,4.23
2018-07-20T21:45:26.233Z,2.70
2018-07-20T21:47:55.351Z,3.07
2018-07-20T21:50:24.494Z,3.27
2018-07-20T21:52:53.601Z,2.63
2018-07-20T21:55:22.718Z,3.07
2018-07-20T21:57:51.835Z,3.10
2018-07-20T22:00:21.004Z,2.83
2018-07-20T22:02:49.850Z,2.77
2018-07-20T22:05:18.954Z,2.60
2018-07-20T22:07:48.048Z,3.07
2018-07-20T22:10:17.137Z,3.30
2018-07-20T22:12:46.348Z,2.77
2018-07-20T22:15:15.488Z,2.90
2018-07-20T22:17:44.696Z,3.03
2018-07-20T22:20:13.978Z,3.13
2018-07-20T22:22:43.116Z,3.40
2018-07-20T22:25:12.303Z,2.87
2018-07-20T22:27:41.389Z,3.80
2018-07-20T22:30:10.977Z,2.77
2018-07-20T22:32:40.027Z,2.90
2018-07-20T22:35:09.460Z,2.97
2018-07-20T22:37:38.584Z,2.90
2018-07-20T22:40:07.778Z,2.93
2018-07-20T22:42:36.890Z,3.07
2018-07-20T22:45:05.973Z,3.30
2018-07-20T22:47:35.134Z,3.30
2018-07-20T22:50:04.039Z,2.93
2018-07-20T22:52:32.757Z,3.00
2018-07-20T22:55:01.765Z,3.10
2018-07-20T22:57:30.889Z,3.53
2018-07-20T22:59:59.776Z,3.40
2018-07-20T23:02:29.543Z,3.20
2018-07-20T23:04:58.730Z,3.67
2018-07-20T23:07:28.016Z,3.40
2018-07-20T23:09:57.131Z,3.00
2018-07-20T23:12:27.092Z,2.73
2018-07-20T23:14:56.248Z,3.80
2018-07-20T23:17:25.902Z,3.33
2018-07-20T23:19:55.543Z,3.27
2018-07-20T23:22:24.588Z,3.23
2018-07-20T23:24:53.758Z,3.13
2018-07-20T23:27:22.881Z,3.33
2018-07-20T23:29:52.631Z,2.67
2018-07-20T23:32:21.791Z,3.13
2018-07-20T23:34:50.631Z,3.20
2018-07-20T23:37:19.630Z,2.77
2018-07-20T23:39:48.681Z,3.10
2018-07-20T23:42:17.555Z,4.37
2018-07-20T23:44:46.479Z,3.50
2018-07-20T23:47:15.593Z,3.10
2018-07-20T23:49:44.691Z,2.80
2018-07-20T23:52:14.375Z,2.90
2018-07-20T23:54:43.734Z,2.60
2018-07-20T23:57:12.844Z,3.20
2018-07-20T23:59:41.689Z,3.37
